Hauptseite
METAR-TAF:

METAR-TAF

Flughäfen :

Hassi R'Mel, Algerien

Breite: 32-55-48N, Länge: 003-18-44E, Höhe: 774 m

Beobachtung

Neuester Wetterbericht von vor 4 Stunden und 45 Minuten, um 18:00 UTC
Wind 10 kt aus Ost/Südost
Temperatur 23°C
Luftfeuchtigkeit 29%
Luftdruck 1020 hPa
Sichtweite 10 km oder mehr
Leicht bewölkt in der Höhe von 3000 ft
Aufgelockert bewölkt in der Höhe von 23300 ft

METAR: DAFH 081800Z 12010KT 9999 FEW030 SCT233 23/04 Q1020

Zeit: 23:45 (22:45 UTC)

Prognose

Neuester Wetterbericht von vor 5 Stunden und 45 Minuten, um 17:00 UTC
Gültige Prognose vom 08 um 18 UTC bis 09 um 03 UTC
Wind 10 kt aus Ost
Sichtweite 10 km oder mehr
Leicht bewölkt in der Höhe von 3300 ft
Wahrscheinlichkeit 30% :
Zeitweise
vom 08 um 18 UTC bis 08 um 21 UTC
Leicht bewölkt in der Höhe von 3000 ft, Kumulonimbus.

TAF: DAFH 081700Z 0818/0903 10010KT 9999 FEW033 PROB30 TEMPO 0818/0821 FEW030CB

Wetterbeobachtungen und Prognosen von mehr als 4000 Flughäfen (METAR und TAF Bericht).

Die verfügbaren Stationen werden durch gelbe und rote Markierungen auf der Karte dargestellt.

Führen Sie die Maus auf sie, um den Namen der Station zu sehen.

Darauf klicken, um die Beobachtung von Wetterbeobachtungen und Prognosen zu sehen.

Um die Karte zu ändern : klicken Sie auf den grünen Tasten mit einem schwarzen Kreuz Zum Vergrößern, auf den grünen Button mit einem Gedankenstrich zu verkleinern, oder auf die grünen Pfeile für benachbarte Karten.


METAR-TAF: